createdAt,value
2022-09-09T00:00:19.173Z,3.00
2022-09-09T00:02:55.593Z,1.45
2022-09-09T00:05:32.003Z,2.80
2022-09-09T00:08:04.986Z,2.67
2022-09-09T00:10:36.391Z,2.38
2022-09-09T00:13:17.410Z,1.67
2022-09-09T00:15:58.001Z,2.38
2022-09-09T00:18:31.543Z,2.42
2022-09-09T00:21:08.679Z,1.90
2022-09-09T00:23:40.659Z,3.75
2022-09-09T00:26:16.628Z,2.35
2022-09-09T00:28:52.751Z,1.85
2022-09-09T00:31:27.722Z,2.17
2022-09-09T00:34:00.854Z,2.92
2022-09-09T00:36:30.524Z,2.22
2022-09-09T00:39:02.456Z,3.13
2022-09-09T00:41:43.513Z,2.60
2022-09-09T00:44:25.918Z,2.25
2022-09-09T00:47:07.177Z,2.30
2022-09-09T00:49:47.611Z,2.15
2022-09-09T00:52:28.614Z,2.30
2022-09-09T00:55:07.077Z,4.00
2022-09-09T00:57:36.990Z,2.67
2022-09-09T01:00:24.330Z,1.85
2022-09-09T01:03:13.341Z,4.63
2022-09-09T01:05:49.151Z,3.25
2022-09-09T01:08:35.849Z,4.15
2022-09-09T01:11:04.548Z,2.13
2022-09-09T01:13:36.817Z,2.58
2022-09-09T01:16:13.450Z,1.87
2022-09-09T01:18:48.565Z,2.42
2022-09-09T01:21:30.148Z,2.28
2022-09-09T01:24:15.392Z,2.58
2022-09-09T01:27:04.648Z,2.08
2022-09-09T01:29:34.563Z,2.97
2022-09-09T01:32:05.611Z,2.70
2022-09-09T01:34:39.796Z,3.45
2022-09-09T01:37:10.773Z,3.13
2022-09-09T01:39:44.936Z,6.00
2022-09-09T01:42:18.697Z,3.67
2022-09-09T01:44:47.769Z,6.90
2022-09-09T01:47:18.752Z,3.10
2022-09-09T01:50:10.144Z,3.05
2022-09-09T01:52:38.703Z,2.33
2022-09-09T01:55:12.623Z,3.03
2022-09-09T01:57:52.560Z,2.97
2022-09-09T02:00:21.222Z,2.47
2022-09-09T02:03:03.218Z,3.22
2022-09-09T02:06:01.140Z,3.22
2022-09-09T02:08:42.390Z,2.17
2022-09-09T02:11:16.391Z,2.17
2022-09-09T02:13:53.439Z,3.90
2022-09-09T02:16:27.205Z,2.38
2022-09-09T02:19:02.884Z,3.10
2022-09-09T02:21:47.615Z,2.80
2022-09-09T02:24:18.244Z,2.78
2022-09-09T02:26:56.832Z,2.17
2022-09-09T02:29:30.999Z,2.28
2022-09-09T02:32:06.584Z,4.07
2022-09-09T02:34:42.612Z,2.40
2022-09-09T02:37:13.168Z,2.28
2022-09-09T02:39:45.864Z,3.85
2022-09-09T02:42:18.040Z,2.42
2022-09-09T02:44:48.104Z,4.05
2022-09-09T02:47:32.586Z,2.65
2022-09-09T02:50:15.098Z,3.47
2022-09-09T02:52:53.289Z,3.10
2022-09-09T02:55:30.918Z,3.25
2022-09-09T02:58:01.704Z,1.77
2022-09-09T03:00:33.490Z,3.22
2022-09-09T03:03:05.257Z,2.72
2022-09-09T03:05:35.048Z,2.00
2022-09-09T03:08:04.474Z,3.85
2022-09-09T03:10:32.894Z,2.78
2022-09-09T03:13:01.776Z,2.47
2022-09-09T03:15:39.259Z,3.63
2022-09-09T03:18:10.366Z,2.97
2022-09-09T03:20:38.825Z,2.28
2022-09-09T03:23:07.429Z,3.55
2022-09-09T03:25:36.742Z,1.52
2022-09-09T03:28:05.122Z,5.53
2022-09-09T03:30:33.647Z,2.75
2022-09-09T03:33:05.022Z,3.22
2022-09-09T03:35:35.195Z,3.92
2022-09-09T03:38:05.238Z,4.53
2022-09-09T03:40:36.329Z,2.95
2022-09-09T03:43:05.095Z,3.25
2022-09-09T03:45:34.068Z,3.72
2022-09-09T03:48:05.352Z,3.05
2022-09-09T03:50:34.374Z,2.47
2022-09-09T03:53:02.740Z,4.05
2022-09-09T03:55:31.129Z,3.70
2022-09-09T03:58:01.422Z,5.80
2022-09-09T04:00:31.655Z,4.32
2022-09-09T04:03:00.210Z,3.60
2022-09-09T04:05:30.039Z,3.50
2022-09-09T04:07:58.395Z,2.83
2022-09-09T04:10:27.834Z,2.35
2022-09-09T04:12:57.388Z,3.63
2022-09-09T04:15:25.966Z,4.25
2022-09-09T04:17:54.361Z,3.65
2022-09-09T04:20:23.204Z,3.13
2022-09-09T04:22:53.283Z,3.28
2022-09-09T04:25:23.464Z,3.28
2022-09-09T04:27:55.979Z,5.32
2022-09-09T04:30:24.651Z,4.97
2022-09-09T04:32:53.337Z,2.13
2022-09-09T04:35:22.117Z,2.80
2022-09-09T04:37:51.100Z,2.83
2022-09-09T04:40:20.884Z,2.80
2022-09-09T04:42:50.651Z,2.88
2022-09-09T04:45:19.621Z,2.65
2022-09-09T04:47:48.404Z,3.53
2022-09-09T04:50:17.057Z,2.53
2022-09-09T04:52:49.154Z,3.38
2022-09-09T04:55:18.158Z,2.80
2022-09-09T04:57:49.364Z,2.88
2022-09-09T05:00:18.532Z,2.95
2022-09-09T05:02:47.387Z,3.15
2022-09-09T05:05:16.208Z,3.83
2022-09-09T05:07:44.748Z,5.13
2022-09-09T05:10:14.464Z,5.03
2022-09-09T05:12:44.031Z,4.47
2022-09-09T05:15:14.386Z,3.45
2022-09-09T05:17:43.351Z,3.28
2022-09-09T05:20:17.182Z,9.45
2022-09-09T05:22:46.136Z,4.43
2022-09-09T05:25:15.035Z,6.30
2022-09-09T05:27:43.554Z,3.78
2022-09-09T05:30:14.273Z,4.43
2022-09-09T05:32:43.142Z,1.90
2022-09-09T05:35:12.434Z,2.97
2022-09-09T05:37:41.690Z,3.17
2022-09-09T05:40:12.220Z,8.20
2022-09-09T05:42:41.808Z,4.13
2022-09-09T05:45:11.532Z,4.28
2022-09-09T05:47:42.604Z,3.55
2022-09-09T05:50:16.126Z,4.53
2022-09-09T05:52:45.668Z,4.60
2022-09-09T05:55:14.613Z,1.40
2022-09-09T05:57:43.658Z,4.20
2022-09-09T06:00:14.219Z,3.53
2022-09-09T06:02:44.639Z,4.85
2022-09-09T06:05:16.456Z,2.03
2022-09-09T06:07:45.919Z,2.83
2022-09-09T06:10:15.642Z,2.30
2022-09-09T06:12:44.116Z,3.22
2022-09-09T06:15:12.778Z,5.40
2022-09-09T06:17:42.680Z,2.35
2022-09-09T06:20:13.989Z,1.80
2022-09-09T06:22:43.067Z,1.92
2022-09-09T06:25:12.047Z,3.20
2022-09-09T06:27:41.794Z,2.83
2022-09-09T06:30:12.327Z,3.50
2022-09-09T06:32:40.809Z,2.97
2022-09-09T06:35:09.874Z,2.20
2022-09-09T06:37:39.754Z,3.60
2022-09-09T06:40:09.524Z,2.67
2022-09-09T06:42:38.737Z,1.55
2022-09-09T06:45:22.677Z,3.45
2022-09-09T06:47:57.745Z,2.60
2022-09-09T06:50:26.753Z,2.05
2022-09-09T06:52:56.659Z,3.17
2022-09-09T06:55:25.419Z,2.78
2022-09-09T06:57:54.096Z,3.05
2022-09-09T07:00:25.793Z,1.48
2022-09-09T07:02:54.309Z,1.90
2022-09-09T07:05:23.102Z,2.00
2022-09-09T07:07:54.137Z,1.60
2022-09-09T07:10:24.721Z,2.40
2022-09-09T07:12:54.351Z,3.15
2022-09-09T07:15:26.021Z,3.42
2022-09-09T07:17:55.924Z,1.55
2022-09-09T07:20:24.378Z,2.15
2022-09-09T07:22:57.215Z,2.97
2022-09-09T07:25:29.050Z,1.70
2022-09-09T07:27:58.472Z,2.47
2022-09-09T07:30:28.106Z,3.55
2022-09-09T07:32:59.472Z,1.58
2022-09-09T07:35:28.101Z,3.13
2022-09-09T07:37:57.224Z,2.15
2022-09-09T07:40:27.426Z,2.40
2022-09-09T07:42:55.907Z,3.22
2022-09-09T07:45:24.547Z,1.70
2022-09-09T07:47:53.759Z,22.88
2022-09-09T07:50:22.817Z,4.57
2022-09-09T07:52:51.685Z,1.92
2022-09-09T07:55:20.684Z,1.20
2022-09-09T07:57:50.634Z,1.08
2022-09-09T08:00:21.483Z,1.48
2022-09-09T08:02:55.293Z,2.30
2022-09-09T08:05:24.825Z,2.25
2022-09-09T08:07:53.335Z,3.28
2022-09-09T08:10:22.364Z,2.00
2022-09-09T08:13:14.682Z,1.05
2022-09-09T08:15:44.517Z,2.80
2022-09-09T08:18:13.558Z,1.60
2022-09-09T08:20:41.992Z,2.33
2022-09-09T08:23:10.561Z,2.78
2022-09-09T08:25:38.957Z,1.60
2022-09-09T08:28:08.901Z,2.45
2022-09-09T13:00:25.248Z,1.85
2022-09-09T13:02:55.210Z,1.45
2022-09-09T13:05:26.826Z,3.58
2022-09-09T13:08:04.167Z,2.15
2022-09-09T13:10:51.647Z,1.95
2022-09-09T13:13:25.474Z,2.70
2022-09-09T13:15:57.598Z,6.13
2022-09-09T13:18:29.163Z,3.08
2022-09-09T13:20:59.196Z,2.88
2022-09-09T13:23:30.707Z,2.28
2022-09-09T13:26:01.740Z,4.35
2022-09-09T13:28:33.683Z,4.30
2022-09-09T13:31:08.153Z,3.50
2022-09-09T13:33:38.432Z,4.53
2022-09-09T13:36:09.437Z,2.45
2022-09-09T13:38:40.543Z,1.45
2022-09-09T13:41:11.378Z,2.25
2022-09-09T13:43:44.284Z,4.22
2022-09-09T13:46:29.182Z,2.15
2022-09-09T13:48:58.204Z,1.30
2022-09-09T13:51:38.148Z,3.40
2022-09-09T13:54:08.415Z,4.70
2022-09-09T13:56:37.794Z,5.15
2022-09-09T13:59:09.188Z,3.63
2022-09-09T14:01:39.013Z,16.88
2022-09-09T14:04:07.581Z,2.03
2022-09-09T14:06:38.319Z,3.10
2022-09-09T14:09:07.142Z,3.15
2022-09-09T14:11:35.599Z,2.97
2022-09-09T14:14:04.041Z,3.55
2022-09-09T14:16:32.555Z,2.22
2022-09-09T14:19:02.717Z,3.92
2022-09-09T14:21:31.134Z,7.75
2022-09-09T14:24:00.135Z,1.63
2022-09-09T14:26:30.015Z,3.53
2022-09-09T14:28:58.986Z,4.47
2022-09-09T14:31:28.003Z,2.00
2022-09-09T14:33:56.476Z,2.72
2022-09-09T14:36:26.912Z,4.20
2022-09-09T14:38:55.317Z,4.90
2022-09-09T14:41:24.516Z,2.88
2022-09-09T14:43:53.087Z,1.70
2022-09-09T14:46:22.609Z,2.90
2022-09-09T14:48:51.466Z,3.85
2022-09-09T14:51:23.314Z,3.65
2022-09-09T14:53:56.365Z,3.95
2022-09-09T21:21:37.924Z,11.95
2022-09-09T21:24:06.897Z,12.68
2022-09-09T21:26:35.626Z,17.58
2022-09-09T21:29:04.240Z,9.30
2022-09-09T21:31:33.000Z,15.65
2022-09-09T21:34:01.600Z,14.02
2022-09-09T21:36:30.017Z,12.35
2022-09-09T21:38:59.839Z,17.92
2022-09-09T21:41:28.653Z,14.18
2022-09-09T21:43:57.114Z,12.23
2022-09-09T21:46:26.758Z,9.98
2022-09-09T21:48:57.180Z,15.73
2022-09-09T21:51:26.101Z,10.70
2022-09-09T21:53:57.134Z,9.00
2022-09-09T21:56:27.007Z,11.25
2022-09-09T21:59:03.864Z,13.00
2022-09-09T22:01:34.502Z,12.38
2022-09-09T22:04:03.792Z,17.00
2022-09-09T22:06:32.375Z,11.05
2022-09-09T22:09:01.886Z,16.67
2022-09-09T22:11:31.827Z,12.55
2022-09-09T22:14:00.484Z,12.02
2022-09-09T22:16:28.915Z,10.55
2022-09-09T22:18:59.350Z,12.35
2022-09-09T22:21:30.023Z,13.95
2022-09-09T22:24:01.132Z,11.15
2022-09-09T22:26:33.190Z,14.68
2022-09-09T22:29:01.908Z,24.40
2022-09-09T22:31:30.413Z,10.65
2022-09-09T22:33:59.021Z,13.95
2022-09-09T22:36:27.604Z,12.20
2022-09-09T22:38:56.934Z,12.40
2022-09-09T22:41:26.236Z,12.40
2022-09-09T22:43:56.139Z,15.25
2022-09-09T22:46:24.604Z,11.93
2022-09-09T22:48:53.096Z,13.57
2022-09-09T22:51:21.480Z,16.50
2022-09-09T22:53:50.008Z,11.25
2022-09-09T22:56:20.840Z,14.50
2022-09-09T22:58:55.808Z,10.05
2022-09-09T23:01:27.453Z,15.50
2022-09-09T23:03:59.700Z,16.35
2022-09-09T23:06:29.674Z,12.63
2022-09-09T23:09:01.120Z,8.27
2022-09-09T23:11:31.987Z,9.57
2022-09-09T23:14:02.406Z,12.88
2022-09-09T23:16:34.520Z,11.30
2022-09-09T23:19:03.040Z,10.23
2022-09-09T23:21:32.441Z,11.43
2022-09-09T23:24:01.354Z,14.75
2022-09-09T23:26:30.108Z,13.43
2022-09-09T23:29:00.218Z,15.50
2022-09-09T23:31:31.012Z,15.25
2022-09-09T23:34:01.938Z,13.35
2022-09-09T23:36:31.089Z,11.95
2022-09-09T23:39:00.463Z,12.20
2022-09-09T23:41:29.054Z,12.27
2022-09-09T23:43:57.881Z,9.27
2022-09-09T23:46:28.698Z,9.20
2022-09-09T23:48:58.581Z,14.70
2022-09-09T23:51:30.683Z,11.82
2022-09-09T23:54:03.080Z,11.52
2022-09-09T23:56:33.968Z,8.07
2022-09-09T23:59:02.548Z,9.65
